Time;durP1;ratioP1;P1;durP2;ratioP2;P2;SDS_P1;SDS_P2;PMS_P1;PMS_P2;Temp;Humidity;BMP_temperature;BMP_pressure;BME280_temperature;BME280_humidity;BME280_pressure;Samples;Min_cycle;Max_cycle;Signal;HPM_P1;HPM_P2
2022/06/24 00:01:17;;;;;;;;;;;;;;;-142.75;100.00;75430.72;4971416;28;19914;-70
2022/06/24 00:03:45;;;;;;;;;;;;;;;-142.75;100.00;75422.84;4971382;28;19920;-69
2022/06/24 00:06:17;;;;;;;;;;;;;;;-142.75;100.00;75416.94;4969847;28;19918;-70
2022/06/24 00:09:00;;;;;;;;;;;;;;;-142.75;100.00;75411.03;4970953;28;19914;-69
2022/06/24 00:11:28;;;;;;;;;;;;;;;-142.75;100.00;75405.13;4971236;28;19918;-70
2022/06/24 00:14:23;;;;;;;;;;;;;;;-142.75;100.00;75407.09;4971123;28;19964;-69
2022/06/24 00:16:52;;;;;;;;;;;;;;;-142.75;100.00;75411.03;4957233;28;19914;-70
2022/06/24 00:19:17;;;;;;;;;;;;;;;-142.75;100.00;75414.97;4969543;28;20005;-69
2022/06/24 00:21:43;;;;;;;;;;;;;;;-142.75;100.00;75416.94;4969809;28;20387;-70
2022/06/24 00:24:19;;;;;;;;;;;;;;;-142.75;100.00;75413.00;4969816;28;19939;-70
2022/06/24 00:26:44;;;;;;;;;;;;;;;-142.75;100.00;75418.91;4970973;28;19997;-69
2022/06/24 00:29:14;;;;;;;;;;;;;;;-142.75;100.00;75428.75;4969492;28;20388;-69
2022/06/24 00:31:39;;;;;;;;;;;;;;;-142.75;100.00;75456.28;4969651;28;19918;-69
2022/06/24 00:34:20;;;;;;;;;;;;;;;-142.75;100.00;75481.88;4970853;28;19926;-68
2022/06/24 00:36:45;;;;;;;;;;;;;;;-142.75;100.00;75505.50;4970846;28;19972;-68
2022/06/24 00:39:11;;;;;;;;;;;;;;;-142.75;100.00;75521.22;4970907;28;19914;-67
2022/06/24 00:41:36;;;;;;;;;;;;;;;-142.75;100.00;75540.91;4970728;28;19937;-68
2022/06/24 00:44:03;;;;;;;;;;;;;;;-142.75;100.00;75570.44;4970833;28;20319;-67
2022/06/24 00:46:34;;;;;;;;;;;;;;;-142.75;100.00;75594.06;4969337;28;19921;-68
2022/06/24 00:49:00;;;;;;;;;;;;;;;-142.75;100.00;75613.72;4969220;28;19921;-67
2022/06/24 00:51:32;;;;;;;;;;;;;;;-142.75;100.00;75629.47;4970757;28;19918;-67
2022/06/24 00:53:57;;;;;;;;;;;;;;;-142.75;100.00;75653.09;4969384;28;19925;-68
2022/06/24 00:56:25;;;;;;;;;;;;;;;-142.75;100.00;75641.28;4970577;28;19915;-67
2022/06/24 00:58:53;;;;;;;;;;;;;;;-142.75;100.00;75664.91;4970242;28;20384;-68
2022/06/24 01:01:26;;;;;;;;;;;;;;;-142.75;100.00;75664.91;4970547;28;19915;-68
2022/06/24 01:03:53;;;;;;;;;;;;;;;-142.75;100.00;75660.97;4970674;28;19914;-67
2022/06/24 01:06:18;;;;;;;;;;;;;;;-142.75;100.00;75672.78;4970291;28;20016;-68
2022/06/24 01:08:44;;;;;;;;;;;;;;;-142.75;100.00;75684.56;4970229;28;20004;-68
2022/06/24 01:11:09;;;;;;;;;;;;;;;-142.75;100.00;75690.47;4973097;28;19921;-68
2022/06/24 01:13:34;;;;;;;;;;;;;;;-142.75;100.00;75708.19;4972513;28;20539;-68
2022/06/24 01:15:59;;;;;;;;;;;;;;;-142.75;100.00;75716.06;4973806;28;19914;-67
2022/06/24 01:18:25;;;;;;;;;;;;;;;-142.75;100.00;75720.00;4973567;28;19918;-68
2022/06/24 01:20:50;;;;;;;;;;;;;;;-142.75;100.00;75729.84;4973827;28;19914;-68
2022/06/24 01:23:21;;;;;;;;;;;;;;;-142.75;100.00;75733.78;4973745;28;19918;-67
2022/06/24 01:25:47;;;;;;;;;;;;;;;-142.75;100.00;75739.69;4973632;28;19914;-67
2022/06/24 01:28:12;;;;;;;;;;;;;;;-142.75;100.00;75735.75;4973372;28;19921;-67
2022/06/24 01:30:37;;;;;;;;;;;;;;;-142.75;100.00;75741.66;4973663;28;19914;-68
2022/06/24 01:33:02;;;;;;;;;;;;;;;-142.75;100.00;75737.72;4973637;28;20417;-68
2022/06/24 01:35:28;;;;;;;;;;;;;;;-142.75;100.00;75731.81;4973468;28;19918;-68
2022/06/24 01:37:53;;;;;;;;;;;;;;;-142.75;100.00;75731.81;4973277;28;19914;-67
2022/06/24 01:40:18;;;;;;;;;;;;;;;-142.75;100.00;75727.88;4973490;28;19921;-68
2022/06/24 01:42:43;;;;;;;;;;;;;;;-142.75;100.00;75727.88;4973391;28;19914;-69
2022/06/24 01:45:09;;;;;;;;;;;;;;;-142.75;100.00;75755.44;4973399;28;20295;-67
2022/06/24 01:47:34;;;;;;;;;;;;;;;-142.75;100.00;75739.69;4973444;28;20327;-68
2022/06/24 01:49:59;;;;;;;;;;;;;;;-142.75;100.00;75743.63;4973154;28;19915;-68
2022/06/24 01:52:24;;;;;;;;;;;;;;;-142.75;100.00;75759.38;4973349;28;20054;-68
2022/06/24 01:54:49;;;;;;;;;;;;;;;-142.75;100.00;75757.41;4973286;28;19918;-68
2022/06/24 01:57:15;;;;;;;;;;;;;;;-142.75;100.00;75761.34;4973207;28;19953;-67
2022/06/24 01:59:40;;;;;;;;;;;;;;;-142.75;100.00;75767.22;4973059;28;19920;-68
2022/06/24 02:02:05;;;;;;;;;;;;;;;-142.75;100.00;75779.03;4973366;28;19918;-68
2022/06/24 02:04:30;;;;;;;;;;;;;;;-142.75;100.00;75775.09;4971955;28;19914;-68
2022/06/24 02:06:55;;;;;;;;;;;;;;;-142.75;100.00;75779.03;4973000;28;19924;-68
2022/06/24 02:09:21;;;;;;;;;;;;;;;-142.75;100.00;75773.13;4972857;28;19915;-68
2022/06/24 02:14:30;;;;;;;;;;;;;;;-142.75;100.00;75773.13;4973357;28;19971;-68
2022/06/24 02:16:56;;;;;;;;;;;;;;;-142.75;100.00;75771.16;4973109;28;19922;-68
2022/06/24 02:19:21;;;;;;;;;;;;;;;-142.75;100.00;75767.22;4972793;28;19914;-67
2022/06/24 02:21:46;;;;;;;;;;;;;;;-142.75;100.00;75753.47;4972934;28;19914;-68
2022/06/24 02:24:13;;;;;;;;;;;;;;;-142.75;100.00;75751.50;4973029;28;20009;-68
2022/06/24 02:26:38;;;;;;;;;;;;;;;-142.75;100.00;75743.63;4973081;28;19914;-68
2022/06/24 02:29:03;;;;;;;;;;;;;;;-142.75;100.00;75745.59;4972767;28;20483;-68
2022/06/24 02:31:29;;;;;;;;;;;;;;;-142.75;100.00;75747.56;4973114;28;19950;-68
2022/06/24 02:33:54;;;;;;;;;;;;;;;-142.75;100.00;75753.47;4972808;28;19918;-67
2022/06/24 02:36:19;;;;;;;;;;;;;;;-142.75;100.00;75735.75;4973012;28;19921;-68
2022/06/24 02:38:44;;;;;;;;;;;;;;;-142.75;100.00;75721.97;4972492;28;19957;-68
2022/06/24 02:41:10;;;;;;;;;;;;;;;-142.75;100.00;75712.13;4972659;28;20299;-66
2022/06/24 02:43:36;;;;;;;;;;;;;;;-142.75;100.00;75723.94;4972695;28;19925;-67
2022/06/24 02:46:03;;;;;;;;;;;;;;;-142.75;100.00;75723.94;4971628;28;20373;-67
2022/06/24 02:48:29;;;;;;;;;;;;;;;-142.75;100.00;75725.91;4972258;28;19921;-67
2022/06/24 02:50:58;;;;;;;;;;;;;;;-142.75;100.00;75712.13;4972536;28;20287;-67
2022/06/24 02:53:24;;;;;;;;;;;;;;;-142.75;100.00;75714.09;4972282;28;19914;-67
2022/06/24 02:55:52;;;;;;;;;;;;;;;-142.75;100.00;75714.09;4971047;28;19980;-68
2022/06/24 02:58:17;;;;;;;;;;;;;;;-142.75;100.00;75735.75;4972132;28;20354;-67
2022/06/24 03:00:43;;;;;;;;;;;;;;;-142.75;100.00;75739.69;4971216;28;19949;-68
2022/06/24 03:03:12;;;;;;;;;;;;;;;-142.75;100.00;75751.50;4972677;28;19921;-67
2022/06/24 03:05:37;;;;;;;;;;;;;;;-142.75;100.00;75749.53;4972154;28;19948;-67
2022/06/24 03:08:03;;;;;;;;;;;;;;;-142.75;100.00;75743.63;4971893;28;20314;-67
2022/06/24 03:10:28;;;;;;;;;;;;;;;-142.75;100.00;75747.56;4972248;28;19961;-67
2022/06/24 03:12:53;;;;;;;;;;;;;;;-142.75;100.00;75763.28;4972294;28;19961;-67
2022/06/24 03:15:19;;;;;;;;;;;;;;;-142.75;100.00;75767.22;4972034;28;20012;-67
2022/06/24 03:17:44;;;;;;;;;;;;;;;-142.75;100.00;75777.06;4972119;28;20342;-66
2022/06/24 03:20:09;;;;;;;;;;;;;;;-142.75;100.00;75779.03;4972093;28;19914;-67
2022/06/24 03:22:36;;;;;;;;;;;;;;;-142.75;100.00;75775.09;4970664;28;19918;-67
2022/06/24 03:25:01;;;;;;;;;;;;;;;-142.75;100.00;75779.03;4971899;28;19914;-67
2022/06/24 03:27:26;;;;;;;;;;;;;;;-142.75;100.00;75771.16;4971817;28;19914;-67
2022/06/24 03:29:51;;;;;;;;;;;;;;;-142.75;100.00;75771.16;4971706;28;19914;-67
2022/06/24 03:32:17;;;;;;;;;;;;;;;-142.75;100.00;75771.16;4971259;28;19914;-67
2022/06/24 03:34:42;;;;;;;;;;;;;;;-142.75;100.00;75775.09;4971720;28;19918;-67
2022/06/24 03:37:07;;;;;;;;;;;;;;;-142.75;100.00;75782.97;4971692;28;19921;-68
2022/06/24 03:39:32;;;;;;;;;;;;;;;-142.75;100.00;75779.03;4971513;28;20264;-67
2022/06/24 03:41:58;;;;;;;;;;;;;;;-142.75;100.00;75786.91;4971726;28;19914;-67
2022/06/24 03:44:23;;;;;;;;;;;;;;;-142.75;100.00;75786.91;4971669;28;19921;-67
2022/06/24 03:46:48;;;;;;;;;;;;;;;-142.75;100.00;75782.97;4971622;28;20031;-67
2022/06/24 03:49:14;;;;;;;;;;;;;;;-142.75;100.00;75784.94;4971433;28;20290;-68
2022/06/24 03:51:40;;;;;;;;;;;;;;;-142.75;100.00;75775.09;4971507;28;19918;-68
2022/06/24 03:54:05;;;;;;;;;;;;;;;-142.75;100.00;75775.09;4970160;28;20421;-68
2022/06/24 03:56:30;;;;;;;;;;;;;;;-142.75;100.00;75773.13;4971423;28;19921;-68
2022/06/24 03:58:55;;;;;;;;;;;;;;;-142.75;100.00;75782.97;4969942;28;20440;-67
2022/06/24 04:01:21;;;;;;;;;;;;;;;-142.75;100.00;75781.00;4971448;28;19963;-67
2022/06/24 04:03:46;;;;;;;;;;;;;;;-142.75;100.00;75771.16;4971383;28;20371;-67
2022/06/24 04:06:11;;;;;;;;;;;;;;;-142.75;100.00;75767.22;4971107;28;20003;-67
2022/06/24 04:08:37;;;;;;;;;;;;;;;-142.75;100.00;75763.28;4970978;28;19914;-67
2022/06/24 04:11:12;;;;;;;;;;;;;;;-142.75;100.00;75757.41;4971259;28;19921;-68
2022/06/24 04:13:37;;;;;;;;;;;;;;;-142.75;100.00;75747.56;4969902;28;19921;-67
2022/06/24 04:16:02;;;;;;;;;;;;;;;-142.75;100.00;75741.66;4971207;28;20358;-67
2022/06/24 04:18:27;;;;;;;;;;;;;;;-142.75;100.00;75723.94;4970892;28;20397;-67
2022/06/24 04:20:53;;;;;;;;;;;;;;;-142.75;100.00;75721.97;4971038;28;19920;-68
2022/06/24 04:23:18;;;;;;;;;;;;;;;-142.75;100.00;75710.16;4971072;28;19918;-68
2022/06/24 04:25:46;;;;;;;;;;;;;;;-142.75;100.00;75698.34;4971036;28;19914;-67
2022/06/24 04:28:11;;;;;;;;;;;;;;;-142.75;100.00;75692.44;4970778;28;19914;-68
2022/06/24 04:30:36;;;;;;;;;;;;;;;-142.75;100.00;75692.44;4971014;28;19920;-67
2022/06/24 04:33:01;;;;;;;;;;;;;;;-142.75;100.00;75686.53;4970940;28;19968;-67
2022/06/24 04:35:27;;;;;;;;;;;;;;;-142.75;100.00;75684.56;4969446;28;19919;-67
2022/06/24 04:37:52;;;;;;;;;;;;;;;-142.75;100.00;75672.78;4970625;28;19914;-65
2022/06/24 04:40:17;;;;;;;;;;;;;;;-142.75;100.00;75668.84;4969623;28;19914;-67
2022/06/24 04:42:44;;;;;;;;;;;;;;;-142.75;100.00;75670.81;4970889;28;19914;-67
2022/06/24 04:45:09;;;;;;;;;;;;;;;-142.75;100.00;75670.81;4969614;28;20402;-67
2022/06/24 04:47:35;;;;;;;;;;;;;;;-142.75;100.00;75668.84;4970839;28;19919;-67
2022/06/24 04:50:00;;;;;;;;;;;;;;;-142.75;100.00;75668.84;4969149;28;19921;-68
2022/06/24 04:52:25;;;;;;;;;;;;;;;-142.75;100.00;75668.84;4969500;28;19914;-68
2022/06/24 04:54:50;;;;;;;;;;;;;;;-142.75;100.00;75668.84;4970651;28;19926;-69
2022/06/24 04:57:16;;;;;;;;;;;;;;;-142.75;100.00;75672.78;4970593;28;19914;-68
2022/06/24 04:59:41;;;;;;;;;;;;;;;-142.75;100.00;75672.78;4970345;28;19922;-68
2022/06/24 05:02:06;;;;;;;;;;;;;;;-142.75;100.00;75674.72;4969355;28;19914;-68
2022/06/24 05:04:31;;;;;;;;;;;;;;;-142.75;100.00;75678.66;4970506;28;19914;-68
2022/06/24 05:06:57;;;;;;;;;;;;;;;-142.75;100.00;75682.59;4970318;28;19925;-68
2022/06/24 05:09:22;;;;;;;;;;;;;;;-142.75;100.00;75686.53;4969001;28;20132;-68
2022/06/24 05:11:50;;;;;;;;;;;;;;;-142.75;100.00;75694.41;4970528;28;19918;-68
2022/06/24 05:14:15;;;;;;;;;;;;;;;-142.75;100.00;75686.53;4970385;28;19918;-68
2022/06/24 05:16:41;;;;;;;;;;;;;;;-142.75;100.00;75684.56;4970377;28;20003;-69
2022/06/24 05:19:06;;;;;;;;;;;;;;;-142.75;100.00;75696.38;4968810;28;19914;-68
2022/06/24 05:21:32;;;;;;;;;;;;;;;-142.75;100.00;75690.47;4970307;28;19918;-68
2022/06/24 05:23:57;;;;;;;;;;;;;;;-142.75;100.00;75688.50;4970400;28;19914;-68
2022/06/24 05:26:22;;;;;;;;;;;;;;;-142.75;100.00;75696.38;4970246;28;20371;-68
2022/06/24 05:28:47;;;;;;;;;;;;;;;-142.75;100.00;75692.44;4968807;28;19950;-69
2022/06/24 05:31:12;;;;;;;;;;;;;;;-142.75;100.00;75688.50;4970278;28;19914;-69
2022/06/24 05:33:37;;;;;;;;;;;;;;;-142.75;100.00;75684.56;4970173;28;19975;-69
2022/06/24 05:36:03;;;;;;;;;;;;;;;-142.75;100.00;75674.72;4969353;28;19963;-68
2022/06/24 05:38:28;;;;;;;;;;;;;;;-142.75;100.00;75678.66;4967803;28;19921;-67
2022/06/24 05:40:54;;;;;;;;;;;;;;;-142.75;100.00;75674.72;4969166;28;19915;-68
2022/06/24 05:43:19;;;;;;;;;;;;;;;-142.75;100.00;75676.69;4969205;28;20001;-67
2022/06/24 05:45:45;;;;;;;;;;;;;;;-142.75;100.00;75670.81;4967913;28;20012;-68
2022/06/24 05:48:10;;;;;;;;;;;;;;;-142.75;100.00;75676.69;4968679;28;19918;-67
2022/06/24 05:50:36;;;;;;;;;;;;;;;-142.75;100.00;75692.44;4969087;28;19924;-68
2022/06/24 05:55:46;;;;;;;;;;;;;;;-142.75;100.00;75696.38;4969733;28;20642;-68
2022/06/24 05:58:11;;;;;;;;;;;;;;;-142.75;100.00;75696.38;4972049;28;19950;-67
2022/06/24 06:00:36;;;;;;;;;;;;;;;-142.75;100.00;75694.41;4972466;28;19919;-68
2022/06/24 06:03:01;;;;;;;;;;;;;;;-142.75;100.00;75692.44;4970790;28;19937;-68
2022/06/24 06:05:27;;;;;;;;;;;;;;;-142.75;100.00;75694.41;4972067;28;19975;-68
2022/06/24 06:07:52;;;;;;;;;;;;;;;-142.75;100.00;75694.41;4971960;28;19915;-67
2022/06/24 06:10:17;;;;;;;;;;;;;;;-142.75;100.00;75708.19;4970861;28;19918;-68
2022/06/24 06:12:42;;;;;;;;;;;;;;;-142.75;100.00;75704.25;4972128;28;20343;-68
2022/06/24 06:15:08;;;;;;;;;;;;;;;-142.75;100.00;75700.31;4970863;28;19918;-68
2022/06/24 06:17:33;;;;;;;;;;;;;;;-142.75;100.00;75702.28;4970707;28;19920;-68
2022/06/24 06:19:58;;;;;;;;;;;;;;;-142.75;100.00;75704.25;4971696;28;20014;-66
2022/06/24 06:22:23;;;;;;;;;;;;;;;-142.75;100.00;75716.06;4972000;28;19918;-67
2022/06/24 06:24:48;;;;;;;;;;;;;;;-142.75;100.00;75718.03;4971963;28;20562;-67
2022/06/24 06:27:14;;;;;;;;;;;;;;;-142.75;100.00;75720.00;4970704;28;20440;-67
2022/06/24 06:29:39;;;;;;;;;;;;;;;-142.75;100.00;75743.63;4971625;28;20510;-67
2022/06/24 06:32:04;;;;;;;;;;;;;;;-142.75;100.00;75751.50;4971693;28;19915;-67
2022/06/24 06:34:29;;;;;;;;;;;;;;;-142.75;100.00;75741.66;4970570;28;20553;-67
2022/06/24 06:36:55;;;;;;;;;;;;;;;-142.75;100.00;75741.66;4971462;28;19918;-67
2022/06/24 06:39:20;;;;;;;;;;;;;;;-142.75;100.00;75743.63;4971494;28;19914;-68
2022/06/24 06:41:46;;;;;;;;;;;;;;;-142.75;100.00;75743.63;4970639;28;19932;-67
2022/06/24 06:44:12;;;;;;;;;;;;;;;-142.75;100.00;75739.69;4971709;28;19925;-67
2022/06/24 06:46:37;;;;;;;;;;;;;;;-142.75;100.00;75733.78;4970368;28;19915;-68
2022/06/24 06:49:02;;;;;;;;;;;;;;;-142.75;100.00;75737.72;4971642;28;19968;-68
2022/06/24 06:51:27;;;;;;;;;;;;;;;-142.75;100.00;75737.72;4971250;28;20260;-68
2022/06/24 06:53:53;;;;;;;;;;;;;;;-142.75;100.00;75731.81;4972342;28;19921;-69
2022/06/24 06:56:18;;;;;;;;;;;;;;;-142.75;100.00;75731.81;4972262;28;19915;-68
2022/06/24 06:58:43;;;;;;;;;;;;;;;-142.75;100.00;75741.66;4972381;28;19930;-68
2022/06/24 07:01:08;;;;;;;;;;;;;;;-142.75;100.00;75747.56;5017115;28;20423;-68
2022/06/24 07:03:33;;;;;;;;;;;;;;;-142.75;100.00;75747.56;5008359;28;20011;-68
2022/06/24 07:05:59;;;;;;;;;;;;;;;-142.75;100.00;75743.63;5015732;28;19917;-68
2022/06/24 07:08:24;;;;;;;;;;;;;;;-142.75;100.00;75761.34;5008304;28;19918;-68
2022/06/24 07:10:49;;;;;;;;;;;;;;;-142.75;100.00;75763.28;5011965;28;19983;-68
2022/06/24 07:13:14;;;;;;;;;;;;;;;-142.75;100.00;75761.34;5012545;28;19922;-68
2022/06/24 07:15:40;;;;;;;;;;;;;;;-142.75;100.00;75751.50;5005530;28;19971;-67
2022/06/24 07:18:05;;;;;;;;;;;;;;;-142.75;100.00;75751.50;5009936;28;19924;-68
2022/06/24 07:20:31;;;;;;;;;;;;;;;-142.75;100.00;75735.75;5016691;28;19971;-66
2022/06/24 07:22:56;;;;;;;;;;;;;;;-142.75;100.00;75729.84;4994252;28;19914;-68
2022/06/24 07:25:21;;;;;;;;;;;;;;;-142.75;100.00;75723.94;4971864;28;20021;-67
2022/06/24 07:27:46;;;;;;;;;;;;;;;-142.75;100.00;75723.94;4970523;28;19963;-68
2022/06/24 07:30:12;;;;;;;;;;;;;;;-142.75;100.00;75712.13;4971773;28;19975;-68
2022/06/24 07:32:37;;;;;;;;;;;;;;;-142.75;100.00;75725.91;4971828;28;19921;-68
2022/06/24 07:35:02;;;;;;;;;;;;;;;-142.75;100.00;75723.94;4971690;28;20028;-68
2022/06/24 07:37:27;;;;;;;;;;;;;;;-142.75;100.00;75723.94;4972013;28;19946;-67
2022/06/24 07:39:53;;;;;;;;;;;;;;;-142.75;100.00;75718.03;4970183;28;20387;-68
2022/06/24 07:42:18;;;;;;;;;;;;;;;-142.75;100.00;75731.81;4970467;28;19914;-68
2022/06/24 07:44:43;;;;;;;;;;;;;;;-142.75;100.00;75729.84;4971723;28;19967;-68
2022/06/24 07:47:12;;;;;;;;;;;;;;;-142.75;100.00;75723.94;4971627;28;19914;-68
2022/06/24 07:49:37;;;;;;;;;;;;;;;-142.75;100.00;75712.13;4971331;28;20345;-68
2022/06/24 07:52:03;;;;;;;;;;;;;;;-142.75;100.00;75704.25;5022711;28;20000;-68
2022/06/24 07:54:28;;;;;;;;;;;;;;;-142.75;100.00;75686.53;5052975;28;19920;-67
2022/06/24 07:56:56;;;;;;;;;;;;;;;-142.75;100.00;75686.53;5052967;28;19913;-68
2022/06/24 07:59:23;;;;;;;;;;;;;;;-142.75;100.00;75674.72;5019701;28;19936;-68
2022/06/24 08:01:48;;;;;;;;;;;;;;;-142.75;100.00;75666.88;4970212;28;20406;-68
2022/06/24 08:04:14;;;;;;;;;;;;;;;-142.75;100.00;75647.19;4969522;28;19918;-69
2022/06/24 08:06:42;;;;;;;;;;;;;;;-142.75;100.00;75653.09;4971134;28;19929;-68
2022/06/24 08:09:08;;;;;;;;;;;;;;;-142.75;100.00;75657.03;4970868;28;19914;-69
2022/06/24 08:11:33;;;;;;;;;;;;;;;-142.75;100.00;75660.97;4971291;28;19920;-68
2022/06/24 08:13:58;;;;;;;;;;;;;;;-142.75;100.00;75653.09;4969935;28;19949;-69
2022/06/24 08:16:24;;;;;;;;;;;;;;;-142.75;100.00;75643.25;4970834;28;20004;-68
2022/06/24 08:18:49;;;;;;;;;;;;;;;-142.75;100.00;75633.41;4970905;28;19920;-68
2022/06/24 08:21:15;;;;;;;;;;;;;;;-142.75;100.00;75619.63;4971130;28;20277;-69
2022/06/24 08:23:40;;;;;;;;;;;;;;;-142.75;100.00;75621.59;4971140;28;19914;-69
2022/06/24 08:26:05;;;;;;;;;;;;;;;-142.75;100.00;75615.69;4971000;28;20326;-68
2022/06/24 08:28:31;;;;;;;;;;;;;;;-142.75;100.00;75603.88;4970844;28;20287;-69
2022/06/24 08:30:56;;;;;;;;;;;;;;;-142.75;100.00;75586.19;4971343;28;20290;-68
2022/06/24 08:33:21;;;;;;;;;;;;;;;-142.75;100.00;75564.53;4970961;28;19914;-68
2022/06/24 08:35:46;;;;;;;;;;;;;;;-142.75;100.00;75554.69;4970826;28;19925;-69
2022/06/24 08:38:12;;;;;;;;;;;;;;;-142.75;100.00;75546.81;4970861;28;19921;-68
2022/06/24 08:40:37;;;;;;;;;;;;;;;-142.75;100.00;75536.97;4970876;28;20458;-68
2022/06/24 08:43:02;;;;;;;;;;;;;;;-142.75;100.00;75535.00;4970916;28;19921;-68
2022/06/24 08:45:28;;;;;;;;;;;;;;;-142.75;100.00;75533.03;4970710;28;20318;-68
2022/06/24 08:47:53;;;;;;;;;;;;;;;-142.75;100.00;75550.75;4970516;28;19914;-68
2022/06/24 08:50:19;;;;;;;;;;;;;;;-142.75;100.00;75548.78;4970782;28;19975;-68
2022/06/24 08:52:54;;;;;;;;;;;;;;;-142.75;100.00;75548.78;4970743;28;20381;-68
2022/06/24 08:55:19;;;;;;;;;;;;;;;-142.75;100.00;75540.91;4969405;28;19960;-68
2022/06/24 08:57:45;;;;;;;;;;;;;;;-142.75;100.00;75546.81;4970601;28;20291;-68
2022/06/24 09:00:10;;;;;;;;;;;;;;;-142.75;100.00;75533.03;4970866;28;19914;-68
2022/06/24 09:02:36;;;;;;;;;;;;;;;-142.75;100.00;75531.06;4970647;28;19921;-68
2022/06/24 09:05:07;;;;;;;;;;;;;;;-142.75;100.00;75505.50;4970581;28;19914;-68
2022/06/24 09:07:32;;;;;;;;;;;;;;;-142.75;100.00;75497.63;4970561;28;20012;-69
2022/06/24 09:10:04;;;;;;;;;;;;;;;-142.75;100.00;75479.91;4969084;28;19960;-67
2022/06/24 09:12:39;;;;;;;;;;;;;;;-142.75;100.00;75468.09;4970503;28;19915;-68
2022/06/24 09:15:05;;;;;;;;;;;;;;;-142.75;100.00;75442.50;4970325;28;19919;-69
2022/06/24 09:17:31;;;;;;;;;;;;;;;-142.75;100.00;75409.06;4970420;28;19940;-68
2022/06/24 09:20:05;;;;;;;;;;;;;;;-142.75;100.00;75407.09;4970150;28;19921;-68
2022/06/24 09:22:31;;;;;;;;;;;;;;;-142.75;100.00;75361.84;4970403;28;19921;-68
2022/06/24 09:24:58;;;;;;;;;;;;;;;-142.75;100.00;75342.16;4970327;28;19914;-68
2022/06/24 09:27:25;;;;;;;;;;;;;;;-142.75;100.00;75334.28;4971239;28;19914;-69
2022/06/24 09:29:50;;;;;;;;;;;;;;;-142.75;100.00;75334.28;4970008;28;19921;-69
2022/06/24 09:32:16;;;;;;;;;;;;;;;-142.75;100.00;75326.41;4971808;28;20354;-69
2022/06/24 09:34:59;;;;;;;;;;;;;;;-142.75;100.00;75346.09;4973600;28;19918;-69
2022/06/24 09:37:34;;;;;;;;;;;;;;;-142.75;100.00;75300.81;4973540;28;19914;-69
2022/06/24 09:40:13;;;;;;;;;;;;;;;-142.75;100.00;75287.06;4973354;28;20010;-69
2022/06/24 09:42:39;;;;;;;;;;;;;;;-142.75;100.00;75279.19;4973523;28;20056;-69
2022/06/24 09:45:04;;;;;;;;;;;;;;;-142.75;100.00;75255.56;4973431;28;20004;-70
2022/06/24 09:47:29;;;;;;;;;;;;;;;-142.75;100.00;75235.88;4973386;28;20379;-70
2022/06/24 09:49:55;;;;;;;;;;;;;;;-142.75;100.00;75212.28;4973151;28;19925;-69
2022/06/24 09:52:20;;;;;;;;;;;;;;;-142.75;100.00;75174.88;4972013;28;19921;-70
2022/06/24 09:54:46;;;;;;;;;;;;;;;-142.75;100.00;75151.28;4973294;28;19918;-69
2022/06/24 09:57:12;;;;;;;;;;;;;;;-142.75;100.00;75137.50;4971997;28;20344;-69
2022/06/24 10:02:22;;;;;;;;;;;;;;;-142.75;100.00;75086.34;4973295;28;20390;-71
2022/06/24 10:04:50;;;;;;;;;;;;;;;-142.75;100.00;75039.13;4972936;28;20342;-68
2022/06/24 10:07:15;;;;;;;;;;;;;;;-142.75;100.00;75015.50;4971772;28;19919;-68
2022/06/24 10:09:41;;;;;;;;;;;;;;;-142.75;100.00;74976.16;4972839;28;19921;-68
2022/06/24 10:12:06;;;;;;;;;;;;;;;-142.75;100.00;74948.59;4973085;28;19972;-68
2022/06/24 10:14:33;;;;;;;;;;;;;;;-142.75;100.00;74932.84;4972972;28;19954;-71
2022/06/24 10:16:59;;;;;;;;;;;;;;;-142.75;100.00;74956.47;4971662;28;19914;-70
2022/06/24 10:19:25;;;;;;;;;;;;;;;-142.75;100.00;74940.72;4972588;28;20272;-70
2022/06/24 10:21:50;;;;;;;;;;;;;;;-142.75;100.00;74915.16;4972947;28;20330;-70
2022/06/24 10:24:16;;;;;;;;;;;;;;;-142.75;100.00;74897.44;4971679;28;20047;-69
2022/06/24 10:26:46;;;;;;;;;;;;;;;-142.75;100.00;74897.44;4972788;28;19956;-70
2022/06/24 10:29:14;;;;;;;;;;;;;;;-142.75;100.00;74919.09;4972610;28;19921;-70
2022/06/24 10:31:42;;;;;;;;;;;;;;;-142.75;100.00;74952.53;4972741;28;20395;-70
2022/06/24 10:34:09;;;;;;;;;;;;;;;-142.75;100.00;74952.53;4972689;28;20272;-71
2022/06/24 10:36:35;;;;;;;;;;;;;;;-142.75;100.00;74993.84;4971690;28;19914;-71
2022/06/24 10:39:08;;;;;;;;;;;;;;;-142.75;100.00;75043.03;4971159;28;19914;-71
2022/06/24 10:41:37;;;;;;;;;;;;;;;-142.75;100.00;75088.31;4972502;28;20368;-70
2022/06/24 10:44:20;;;;;;;;;;;;;;;-142.75;100.00;75117.81;4972637;28;20005;-71
2022/06/24 10:46:46;;;;;;;;;;;;;;;-142.75;100.00;75149.31;4972558;28;20011;-70
2022/06/24 10:49:11;;;;;;;;;;;;;;;-142.75;100.00;75163.09;4972247;28;20411;-71
2022/06/24 10:51:36;;;;;;;;;;;;;;;-142.75;100.00;75172.91;4972543;28;19915;-70
2022/06/24 10:54:01;;;;;;;;;;;;;;;-142.75;100.00;75180.78;4972449;28;19914;-70
2022/06/24 10:56:45;;;;;;;;;;;;;;;-142.75;100.00;75192.59;4971081;28;20318;-70
2022/06/24 10:59:12;;;;;;;;;;;;;;;-142.75;100.00;75196.53;4972119;28;20011;-70
2022/06/24 11:01:42;;;;;;;;;;;;;;;-142.75;100.00;75200.47;4972375;28;19914;-70
2022/06/24 11:04:08;;;;;;;;;;;;;;;-142.75;100.00;75204.41;4972378;28;19914;-69
2022/06/24 11:06:33;;;;;;;;;;;;;;;-142.75;100.00;75212.28;4972100;28;20277;-70
2022/06/24 11:09:06;;;;;;;;;;;;;;;-142.75;100.00;75212.28;4971962;28;19953;-69
2022/06/24 11:11:32;;;;;;;;;;;;;;;-142.75;100.00;75247.69;4972133;28;20383;-69
2022/06/24 11:13:57;;;;;;;;;;;;;;;-142.75;100.00;75267.38;4972126;28;19921;-69
2022/06/24 11:16:25;;;;;;;;;;;;;;;-142.75;100.00;75287.06;4972113;28;20455;-69
2022/06/24 11:18:51;;;;;;;;;;;;;;;-142.75;100.00;75285.09;4971872;28;19915;-69
2022/06/24 11:21:19;;;;;;;;;;;;;;;-142.75;100.00;75285.09;4972086;28;19914;-69
2022/06/24 11:23:46;;;;;;;;;;;;;;;-142.75;100.00;75279.19;4971973;28;19961;-68
2022/06/24 11:26:11;;;;;;;;;;;;;;;-142.75;100.00;75279.19;4971845;28;19915;-69
2022/06/24 11:28:37;;;;;;;;;;;;;;;-142.75;100.00;75289.03;4971665;28;19917;-70
2022/06/24 11:31:13;;;;;;;;;;;;;;;-142.75;100.00;75300.81;4971812;28;19914;-69
2022/06/24 11:33:39;;;;;;;;;;;;;;;-142.75;100.00;75275.25;4971783;28;19921;-70
2022/06/24 11:36:04;;;;;;;;;;;;;;;-142.75;100.00;75251.63;4971720;28;20365;-70
2022/06/24 11:38:29;;;;;;;;;;;;;;;-142.75;100.00;75263.44;4970171;28;19971;-68
2022/06/24 11:40:54;;;;;;;;;;;;;;;-142.75;100.00;75235.88;4971801;28;19971;-70
2022/06/24 11:43:19;;;;;;;;;;;;;;;-142.75;100.00;75231.94;4970454;28;19957;-69
2022/06/24 11:45:48;;;;;;;;;;;;;;;-142.75;100.00;75196.53;4971640;28;19918;-70
2022/06/24 11:48:21;;;;;;;;;;;;;;;-142.75;100.00;75163.09;4971413;28;19960;-69
2022/06/24 11:50:46;;;;;;;;;;;;;;;-142.75;100.00;75157.19;4971592;28;19925;-70
2022/06/24 11:53:11;;;;;;;;;;;;;;;-142.75;100.00;75143.41;4971142;28;19917;-69
2022/06/24 11:55:38;;;;;;;;;;;;;;;-142.75;100.00;75098.16;4971379;28;20010;-70
2022/06/24 11:58:07;;;;;;;;;;;;;;;-142.75;100.00;75070.59;4971299;28;20348;-66
2022/06/24 12:00:34;;;;;;;;;;;;;;;-142.75;100.00;75080.44;4971480;28;20009;-70
2022/06/24 12:03:00;;;;;;;;;;;;;;;-142.75;100.00;75050.91;4970242;28;19914;-70
2022/06/24 12:05:26;;;;;;;;;;;;;;;-142.75;100.00;75043.03;4971108;28;19936;-70
2022/06/24 12:07:51;;;;;;;;;;;;;;;-142.75;100.00;75017.47;4971202;28;19914;-70
2022/06/24 12:10:17;;;;;;;;;;;;;;;-142.75;100.00;74999.75;4971195;28;20343;-69
2022/06/24 12:13:01;;;;;;;;;;;;;;;-142.75;100.00;75011.56;4971309;28;20422;-70
2022/06/24 12:15:41;;;;;;;;;;;;;;;-142.75;100.00;75003.69;4971189;28;19922;-70
2022/06/24 12:18:13;;;;;;;;;;;;;;;-142.75;100.00;75019.44;4970859;28;19914;-70
2022/06/24 12:20:38;;;;;;;;;;;;;;;-142.75;100.00;75019.44;4969910;28;20454;-70
2022/06/24 12:23:16;;;;;;;;;;;;;;;-142.75;100.00;74980.06;4969915;28;19949;-70